Lakeview, New York
Current Conditions -  °F | °C
As of 12:51 AM on Thursday 27 Nov 2014 (Local Time) from KJFK Reporting Station
Light Rain Light Rain  
Wind Chill: 26°   Ceiling: 3800
Heat Index: 36°   Visibility: 10mi
Dew Point: 31°   Wind: 16mph
Humidity: 82%   Direction: 330°NNW
Pressure: 29.86"   Gusts: 28mph
Location:  40.6657°N, 73.6385°W
Report Text: KJFK 270551Z 33014G24KT 10SM -RA FEW016 OVC038 02/M01 A2986 RMK AO2 SNE44 SLP110 931000 P0001 60009 T00221006 10033 20022 51015 $
Loading
Personal Weather Stations






























Interactive Weather Map New forecast layout! Learn more

10-Day Weather Forecast

Advertisements
Track Severe Weather on mobile